createdAt,value
2022-10-23T00:00:19.062Z,18.52
2022-10-23T00:02:52.272Z,21.48
2022-10-23T00:05:24.055Z,16.98
2022-10-23T00:07:54.849Z,17.25
2022-10-23T00:10:23.085Z,19.10
2022-10-23T00:12:50.552Z,17.85
2022-10-23T00:15:20.635Z,17.50
2022-10-23T00:17:47.337Z,19.50
2022-10-23T00:20:17.808Z,19.55
2022-10-23T00:22:44.602Z,15.57
2022-10-23T00:25:13.660Z,19.60
2022-10-23T00:27:40.499Z,18.90
2022-10-23T00:30:08.753Z,25.23
2022-10-23T00:32:35.373Z,20.08
2022-10-23T00:35:02.130Z,22.38
2022-10-23T00:37:28.762Z,17.88
2022-10-23T00:39:55.826Z,27.58
2022-10-23T00:42:23.148Z,20.80
2022-10-23T00:44:50.067Z,20.00
2022-10-23T00:47:16.984Z,22.55
2022-10-23T00:49:44.087Z,15.85
2022-10-23T00:52:12.235Z,22.02
2022-10-23T00:54:41.143Z,18.38
2022-10-23T00:57:12.125Z,19.23
2022-10-23T00:59:39.501Z,19.98
2022-10-23T01:02:06.576Z,23.17
2022-10-23T01:04:34.456Z,18.20
2022-10-23T01:07:48.413Z,19.02
2022-10-23T01:10:20.018Z,15.30
2022-10-23T01:12:57.098Z,23.50
2022-10-23T01:15:38.366Z,19.88
2022-10-23T01:18:17.299Z,19.50
2022-10-23T01:20:51.493Z,20.75
2022-10-23T01:23:37.132Z,20.55
2022-10-23T01:26:15.858Z,17.52
2022-10-23T01:28:53.920Z,22.00
2022-10-23T01:31:28.439Z,21.73
2022-10-23T01:34:03.165Z,23.50
2022-10-23T01:36:33.865Z,24.10
2022-10-23T01:39:10.863Z,27.63
2022-10-23T01:41:51.746Z,19.90
2022-10-23T01:44:38.433Z,19.67
2022-10-23T01:47:07.521Z,18.10
2022-10-23T01:49:42.180Z,15.32
2022-10-23T01:52:11.941Z,22.63
2022-10-23T01:54:42.444Z,16.63
2022-10-23T01:57:12.211Z,23.88
2022-10-23T01:59:42.604Z,16.48
2022-10-23T02:02:12.044Z,19.85
2022-10-23T02:04:56.012Z,20.00
2022-10-23T02:07:24.869Z,18.15
2022-10-23T02:09:51.485Z,16.63
2022-10-23T02:12:29.177Z,20.02
2022-10-23T02:15:42.329Z,15.85
2022-10-23T02:25:32.384Z,15.25
2022-10-23T02:28:02.858Z,20.40
2022-10-23T02:30:42.162Z,23.65
2022-10-23T02:33:11.993Z,13.35
2022-10-23T02:35:38.814Z,17.92
2022-10-23T02:38:31.687Z,16.17
2022-10-23T02:41:04.964Z,14.80
2022-10-23T02:43:41.537Z,14.27
2022-10-23T02:46:20.370Z,18.45
2022-10-23T02:49:04.212Z,15.05
2022-10-23T02:51:52.825Z,14.93
2022-10-23T02:54:31.752Z,18.52
2022-10-23T02:57:18.900Z,16.27
2022-10-23T03:00:07.418Z,13.88
2022-10-23T03:02:44.301Z,17.02
2022-10-23T03:05:17.338Z,15.75
2022-10-23T03:07:44.685Z,15.48
2022-10-23T03:10:11.576Z,17.23
2022-10-23T03:12:38.673Z,18.73
2022-10-23T03:15:07.240Z,15.82
2022-10-23T03:17:34.040Z,20.85
2022-10-23T03:20:00.788Z,14.65
2022-10-23T03:22:27.431Z,20.42
2022-10-23T03:24:54.067Z,16.88
2022-10-23T03:27:20.797Z,14.98
2022-10-23T03:29:47.472Z,20.52
2022-10-23T03:32:15.659Z,14.13
2022-10-23T03:34:42.504Z,19.05
2022-10-23T03:37:09.412Z,28.15
2022-10-23T03:39:36.523Z,15.43
2022-10-23T03:42:03.170Z,18.55
2022-10-23T03:44:31.177Z,15.07
2022-10-23T03:46:58.366Z,13.93
2022-10-23T03:49:25.015Z,19.85
2022-10-23T03:51:54.460Z,17.88
2022-10-23T03:54:26.568Z,12.73
2022-10-23T03:56:56.629Z,13.60
2022-10-23T03:59:24.414Z,17.98
2022-10-23T04:01:51.142Z,12.40
2022-10-23T04:04:18.084Z,15.73
2022-10-23T04:06:45.153Z,20.30
2022-10-23T04:11:41.452Z,18.50
2022-10-23T04:14:11.922Z,15.98
2022-10-23T04:16:38.641Z,17.75
2022-10-23T04:19:06.530Z,17.25
2022-10-23T04:21:33.135Z,21.77
2022-10-23T04:24:00.870Z,15.00
2022-10-23T04:26:27.583Z,18.33
2022-10-23T04:28:54.181Z,13.57
2022-10-23T04:31:20.840Z,17.95
2022-10-23T04:33:47.495Z,17.60
2022-10-23T04:36:27.352Z,20.77
2022-10-23T04:38:53.981Z,16.80
2022-10-23T04:41:20.656Z,16.85
2022-10-23T04:43:47.416Z,20.10
2022-10-23T04:46:15.102Z,18.00
2022-10-23T04:48:45.304Z,17.20
2022-10-23T04:51:22.474Z,18.08
2022-10-23T04:54:04.428Z,14.27
2022-10-23T04:57:03.105Z,12.98
2022-10-23T04:59:48.244Z,13.93
2022-10-23T05:02:15.011Z,17.13
2022-10-23T05:04:41.781Z,20.20
2022-10-23T05:07:31.297Z,27.42
2022-10-23T05:10:06.621Z,19.52
2022-10-23T05:12:47.817Z,16.33
2022-10-23T05:15:14.878Z,14.90
2022-10-23T05:17:44.250Z,19.80
2022-10-23T05:20:15.582Z,16.80
2022-10-23T05:22:43.007Z,15.63
2022-10-23T05:25:12.142Z,17.45
2022-10-23T05:27:41.652Z,16.80
2022-10-23T05:30:11.827Z,17.40
2022-10-23T05:32:38.756Z,28.75
2022-10-23T05:35:08.886Z,23.33
2022-10-23T05:37:40.527Z,15.95
2022-10-23T05:40:12.312Z,12.65
2022-10-23T05:42:41.672Z,12.93
2022-10-23T05:45:10.825Z,22.05
2022-10-23T05:48:10.816Z,19.48
2022-10-23T05:51:11.548Z,20.30
2022-10-23T05:54:01.372Z,16.20
2022-10-23T05:56:46.569Z,22.73
2022-10-23T05:59:23.067Z,24.00
2022-10-23T06:02:22.454Z,18.23
2022-10-23T06:04:59.938Z,19.55
2022-10-23T06:08:02.042Z,16.45
2022-10-23T06:10:31.820Z,25.42
2022-10-23T06:13:01.566Z,23.33
2022-10-23T06:15:28.993Z,16.13
2022-10-23T06:18:05.183Z,12.30
2022-10-23T06:20:37.500Z,16.17
2022-10-23T06:23:14.810Z,12.70
2022-10-23T06:26:18.450Z,14.70
2022-10-23T06:29:06.763Z,26.00
2022-10-23T06:31:33.412Z,19.05
2022-10-23T06:34:01.847Z,15.70
2022-10-23T06:36:30.389Z,11.65
2022-10-23T06:39:36.832Z,15.73
2022-10-23T06:42:12.883Z,14.75
2022-10-23T06:44:54.513Z,22.42
2022-10-23T06:47:41.259Z,12.57
2022-10-23T06:50:13.186Z,18.35
2022-10-23T06:52:47.152Z,20.65
2022-10-23T06:55:17.976Z,14.13
2022-10-23T06:57:46.147Z,17.45
2022-10-23T07:00:13.540Z,16.13
2022-10-23T07:02:50.378Z,12.45
2022-10-23T07:05:17.579Z,19.52
2022-10-23T07:07:44.522Z,16.25
2022-10-23T07:10:15.322Z,15.95
2022-10-23T07:12:45.317Z,15.30
2022-10-23T07:15:44.535Z,16.00
2022-10-23T07:18:16.839Z,13.15
2022-10-23T07:21:03.911Z,19.35
2022-10-23T07:23:32.022Z,15.52
2022-10-23T07:26:15.129Z,11.77
2022-10-23T07:28:43.552Z,18.13
2022-10-23T07:31:10.929Z,14.88
2022-10-23T07:33:57.529Z,13.32
2022-10-23T07:36:24.432Z,13.00
2022-10-23T07:38:51.713Z,12.32
2022-10-23T07:41:18.474Z,13.38
2022-10-23T07:43:45.256Z,14.57
2022-10-23T07:46:11.861Z,13.15
2022-10-23T07:48:40.004Z,16.35
2022-10-23T07:51:11.677Z,15.02
2022-10-23T07:53:53.168Z,13.57
2022-10-23T07:56:51.895Z,13.88
2022-10-23T07:59:27.355Z,13.68
2022-10-23T08:01:56.806Z,13.85
2022-10-23T08:04:38.300Z,14.40
2022-10-23T08:07:14.524Z,20.20
2022-10-23T08:09:44.076Z,15.65
2022-10-23T08:12:12.116Z,13.25
2022-10-23T08:14:39.079Z,10.90
2022-10-23T08:17:09.573Z,13.30
2022-10-23T08:20:01.168Z,23.90
2022-10-23T08:22:35.154Z,14.82
2022-10-23T08:25:02.344Z,9.55
2022-10-23T08:27:29.028Z,13.30
2022-10-23T08:29:55.601Z,13.35
2022-10-23T08:32:22.338Z,12.27
2022-10-23T08:34:58.003Z,15.05
2022-10-23T08:37:27.004Z,14.85
2022-10-23T08:39:55.766Z,12.45
2022-10-23T08:42:29.929Z,12.63
2022-10-23T08:45:08.218Z,15.30
2022-10-23T08:47:47.816Z,8.32
2022-10-23T08:50:39.443Z,10.25
2022-10-23T08:53:13.171Z,7.60
2022-10-23T08:55:46.589Z,15.68
2022-10-23T08:58:26.216Z,9.77
2022-10-23T09:00:52.968Z,7.47
2022-10-23T09:03:19.825Z,7.57
2022-10-23T09:06:07.521Z,14.38
2022-10-23T09:08:45.596Z,11.20
2022-10-23T09:11:27.792Z,12.43
2022-10-23T09:13:54.406Z,15.55
2022-10-23T09:16:49.301Z,10.32
2022-10-23T09:19:24.692Z,9.23
2022-10-23T09:21:51.373Z,10.68
2022-10-23T09:24:20.022Z,7.60
2022-10-23T09:26:49.516Z,11.70
2022-10-23T09:29:22.691Z,12.48
2022-10-23T09:32:07.534Z,10.07
2022-10-23T09:34:35.146Z,12.27
2022-10-23T09:37:04.910Z,12.65
2022-10-23T09:39:36.553Z,6.55
2022-10-23T09:42:16.004Z,10.95
2022-10-23T09:44:49.172Z,7.88
2022-10-23T09:47:20.613Z,8.73
2022-10-23T09:49:49.692Z,8.85
2022-10-23T09:52:16.710Z,6.38
2022-10-23T09:54:51.547Z,7.53
2022-10-23T09:57:44.829Z,8.32
2022-10-23T10:00:19.030Z,8.73
2022-10-23T10:03:01.711Z,7.03
2022-10-23T10:05:39.459Z,9.52
2022-10-23T10:08:46.814Z,7.82
2022-10-23T10:11:41.184Z,9.10
2022-10-23T10:14:39.533Z,7.10
2022-10-23T10:17:37.865Z,7.55
2022-10-23T10:20:30.426Z,11.95
2022-10-23T10:23:29.325Z,12.27
2022-10-23T10:26:11.414Z,7.57
2022-10-23T10:29:25.921Z,5.40
2022-10-23T10:32:06.527Z,10.68
2022-10-23T10:34:42.007Z,6.55
2022-10-23T10:37:11.730Z,8.20
2022-10-23T10:39:49.372Z,6.85
2022-10-23T10:42:34.114Z,10.98
2022-10-23T10:45:26.730Z,7.03
2022-10-23T10:48:08.489Z,4.20
2022-10-23T10:51:33.185Z,6.80
2022-10-23T10:54:28.910Z,3.85
2022-10-23T10:56:59.150Z,7.22
2022-10-23T10:59:32.323Z,11.13
2022-10-23T11:02:04.461Z,9.77
2022-10-23T11:04:52.552Z,4.50
2022-10-23T11:07:24.228Z,8.00
2022-10-23T11:18:28.584Z,10.00
2022-10-23T11:21:32.977Z,7.65
2022-10-23T11:24:04.730Z,5.10
2022-10-23T11:27:00.635Z,4.78
2022-10-23T11:29:58.146Z,5.63
2022-10-23T11:32:45.050Z,8.52
2022-10-23T11:41:21.123Z,4.30
2022-10-23T11:44:01.479Z,6.68
2022-10-23T11:46:36.741Z,5.43
2022-10-23T11:49:05.974Z,5.97
2022-10-23T11:51:37.633Z,10.60
2022-10-23T11:54:10.196Z,4.82
2022-10-23T11:56:39.944Z,5.05
2022-10-23T11:59:28.812Z,5.97
2022-10-23T12:01:57.081Z,5.05
2022-10-23T12:04:36.578Z,9.68
2022-10-23T12:07:05.366Z,5.15
2022-10-23T12:09:51.521Z,5.32
2022-10-23T12:12:28.013Z,3.92
2022-10-23T12:15:07.550Z,9.05
2022-10-23T12:17:41.704Z,8.88
2022-10-23T12:20:08.505Z,5.60
2022-10-23T12:22:44.318Z,2.65
2022-10-23T12:28:23.258Z,5.25
2022-10-23T12:31:28.291Z,4.85
2022-10-23T12:34:13.516Z,3.35
2022-10-23T12:37:02.778Z,6.75
2022-10-23T12:39:31.380Z,2.78
2022-10-23T12:41:59.736Z,3.80
2022-10-23T12:44:26.866Z,5.05
2022-10-23T12:47:01.424Z,4.85
2022-10-23T12:49:35.578Z,3.67
2022-10-23T12:52:05.312Z,4.75
2022-10-23T12:54:33.646Z,8.10
2022-10-23T12:57:00.284Z,5.18
2022-10-23T12:59:39.618Z,8.35
2022-10-23T13:02:26.193Z,8.07
2022-10-23T13:04:55.396Z,6.45
2022-10-23T13:07:34.650Z,4.63
2022-10-23T13:10:03.159Z,7.35
2022-10-23T13:12:35.715Z,2.25
2022-10-23T13:15:11.396Z,1.90
2022-10-23T13:17:47.161Z,6.95
2022-10-23T13:20:17.023Z,12.00
2022-10-23T13:22:47.002Z,3.15
2022-10-23T13:25:23.077Z,6.30
2022-10-23T13:27:50.287Z,3.65
2022-10-23T13:30:31.358Z,7.75
2022-10-23T13:32:58.170Z,5.68
2022-10-23T13:35:24.795Z,1.95
2022-10-23T13:37:51.761Z,3.22
2022-10-23T13:40:27.228Z,3.00
2022-10-23T13:42:56.402Z,2.17
2022-10-23T13:45:25.766Z,3.80
2022-10-23T13:47:53.155Z,2.67
2022-10-23T13:50:20.744Z,6.30
2022-10-23T13:52:48.087Z,6.63
2022-10-23T13:55:23.944Z,5.07
2022-10-23T13:57:50.640Z,8.45
2022-10-23T14:00:18.788Z,5.20
2022-10-23T14:02:45.789Z,6.55
2022-10-23T14:05:14.717Z,3.75
2022-10-23T14:07:42.215Z,5.25
2022-10-23T14:10:10.290Z,6.15
2022-10-23T14:12:44.196Z,5.28
2022-10-23T14:15:11.784Z,3.40
2022-10-23T14:17:38.568Z,10.48
2022-10-23T14:20:06.404Z,2.60
2022-10-23T14:22:33.592Z,5.15
2022-10-23T14:25:01.234Z,5.53
2022-10-23T14:27:30.197Z,3.70
2022-10-23T14:29:57.408Z,8.30
2022-10-23T14:32:24.176Z,4.15
2022-10-23T14:34:53.261Z,9.02
2022-10-23T14:37:22.035Z,6.82
2022-10-23T14:39:50.229Z,11.43
2022-10-23T14:42:17.479Z,6.97
2022-10-23T14:44:47.022Z,11.20
2022-10-23T14:47:16.533Z,4.63
2022-10-23T14:49:44.226Z,3.97
2022-10-23T14:52:10.934Z,6.15
2022-10-23T14:54:37.620Z,4.60
2022-10-23T14:57:06.962Z,5.97
2022-10-23T14:59:33.644Z,2.90
2022-10-23T15:02:00.273Z,5.05
2022-10-23T15:04:28.432Z,4.93
2022-10-23T15:06:56.162Z,7.70
2022-10-23T15:09:23.044Z,8.07
2022-10-23T15:11:49.944Z,8.95
2022-10-23T15:14:18.614Z,5.22
2022-10-23T15:16:52.659Z,7.38
2022-10-23T15:19:26.484Z,5.22
2022-10-23T15:21:53.225Z,10.48
2022-10-23T15:24:23.570Z,7.35
2022-10-23T15:26:51.789Z,10.00
2022-10-23T15:29:21.241Z,6.32
2022-10-23T15:31:57.165Z,4.72
2022-10-23T15:34:27.204Z,3.78
2022-10-23T15:36:55.504Z,4.35
2022-10-23T15:39:33.683Z,2.85
2022-10-23T15:42:00.567Z,6.20
2022-10-23T15:44:43.651Z,8.82
2022-10-23T15:47:13.318Z,4.60
2022-10-23T15:49:39.965Z,2.80
2022-10-23T15:52:11.661Z,7.82
2022-10-23T15:54:38.533Z,11.80
2022-10-23T15:57:05.559Z,7.63
2022-10-23T15:59:32.681Z,10.20
2022-10-23T16:01:59.589Z,10.25
2022-10-23T16:04:26.527Z,5.97
2022-10-23T16:06:56.144Z,11.13
2022-10-23T16:09:31.448Z,9.70
2022-10-23T16:12:00.845Z,5.15
2022-10-23T16:14:29.764Z,8.85
2022-10-23T16:16:56.412Z,9.00
2022-10-23T16:19:24.308Z,7.60
2022-10-23T16:21:51.075Z,8.55
2022-10-23T16:24:17.877Z,9.48
2022-10-23T16:26:55.625Z,6.88
2022-10-23T16:29:23.787Z,7.38
2022-10-23T16:31:54.001Z,5.63
2022-10-23T16:34:26.371Z,7.30
2022-10-23T16:36:53.329Z,9.32
2022-10-23T16:39:49.085Z,12.18
2022-10-23T16:43:03.775Z,5.47
2022-10-23T16:45:42.762Z,10.57
2022-10-23T16:48:18.032Z,11.55
2022-10-23T16:50:44.793Z,7.88
2022-10-23T16:53:12.480Z,10.15
2022-10-23T16:55:41.000Z,9.77
2022-10-23T16:58:07.799Z,6.72
2022-10-23T17:00:35.473Z,15.85
2022-10-23T17:03:03.652Z,6.70
2022-10-23T17:05:34.573Z,7.30
2022-10-23T17:08:01.539Z,14.48
2022-10-23T17:10:28.314Z,13.82
2022-10-23T17:12:56.127Z,7.97
2022-10-23T17:15:23.893Z,13.50
2022-10-23T17:17:50.734Z,7.32
2022-10-23T17:20:17.465Z,10.20
2022-10-23T17:22:44.629Z,5.93
2022-10-23T17:25:13.074Z,9.73
2022-10-23T17:27:39.713Z,8.23
2022-10-23T17:30:12.389Z,7.70
2022-10-23T17:32:39.453Z,8.98
2022-10-23T17:35:07.032Z,6.72
2022-10-23T17:37:33.696Z,6.57
2022-10-23T17:40:02.542Z,6.65
2022-10-23T17:42:30.755Z,6.25
2022-10-23T17:44:57.571Z,9.95
2022-10-23T17:47:24.317Z,9.25
2022-10-23T17:49:50.927Z,6.70
2022-10-23T17:52:17.742Z,13.38
2022-10-23T17:54:44.705Z,13.25
2022-10-23T17:57:13.074Z,7.88
2022-10-23T17:59:40.208Z,8.82
2022-10-23T18:04:48.873Z,6.00
2022-10-23T18:07:15.629Z,4.38
2022-10-23T18:09:42.310Z,11.13
2022-10-23T18:12:10.226Z,12.50
2022-10-23T18:14:37.979Z,7.40
2022-10-23T18:17:04.780Z,6.55
2022-10-23T18:19:32.056Z,7.60
2022-10-23T18:21:58.892Z,7.88
2022-10-23T18:24:26.604Z,8.35
2022-10-23T18:26:53.329Z,8.60
2022-10-23T18:29:21.277Z,5.30
2022-10-23T18:31:52.857Z,5.70
2022-10-23T18:34:22.813Z,8.18
2022-10-23T18:36:51.908Z,7.78
2022-10-23T18:39:23.926Z,6.70
2022-10-23T18:41:54.474Z,7.93
2022-10-23T18:44:22.840Z,6.00
2022-10-23T18:46:50.628Z,5.65
2022-10-23T18:49:19.667Z,7.25
2022-10-23T18:51:46.534Z,7.65
2022-10-23T18:54:20.971Z,9.20
2022-10-23T18:56:48.335Z,7.13
2022-10-23T18:59:20.532Z,10.77
2022-10-23T19:04:31.748Z,9.23
2022-10-23T19:07:01.509Z,11.43
2022-10-23T19:09:28.396Z,9.00
2022-10-23T19:11:55.960Z,9.40
2022-10-23T19:14:24.612Z,7.85
2022-10-23T19:16:56.470Z,6.07
2022-10-23T19:19:30.101Z,9.43
2022-10-23T19:21:56.965Z,10.32
2022-10-23T19:24:36.869Z,6.32
2022-10-23T19:27:05.259Z,4.65
2022-10-23T19:29:33.071Z,7.18
2022-10-23T19:32:00.214Z,7.32
2022-10-23T19:34:28.339Z,7.88
2022-10-23T19:36:55.113Z,6.78
2022-10-23T19:39:22.216Z,7.78
2022-10-23T19:41:51.634Z,10.50
2022-10-23T19:44:19.954Z,7.68
2022-10-23T19:47:02.287Z,11.68
2022-10-23T19:49:28.939Z,6.95
2022-10-23T19:51:55.732Z,10.07
2022-10-23T19:54:25.044Z,16.52
2022-10-23T19:56:51.882Z,9.27
2022-10-23T19:59:18.554Z,9.35
2022-10-23T20:01:48.182Z,6.07
2022-10-23T20:04:19.247Z,8.18
2022-10-23T20:06:47.116Z,7.03
2022-10-23T20:09:16.041Z,6.70
2022-10-23T20:11:43.586Z,6.80
2022-10-23T20:14:10.332Z,4.85
2022-10-23T20:16:39.512Z,3.65
2022-10-23T20:19:09.735Z,5.72
2022-10-23T20:21:37.319Z,6.18
2022-10-23T20:24:05.646Z,8.95
2022-10-23T20:26:32.475Z,3.03
2022-10-23T20:29:00.047Z,4.57
2022-10-23T20:31:29.881Z,2.65
2022-10-23T20:34:16.716Z,2.47
2022-10-23T20:36:46.785Z,10.77
2022-10-23T20:39:27.850Z,5.55
2022-10-23T20:41:55.438Z,5.07
2022-10-23T20:44:22.868Z,3.58
2022-10-23T20:46:52.552Z,2.92
2022-10-23T20:49:19.742Z,5.05
2022-10-23T20:51:54.767Z,4.45
2022-10-23T20:54:26.066Z,3.70
2022-10-23T20:56:57.159Z,5.47
2022-10-23T20:59:26.845Z,2.25
2022-10-23T21:01:55.219Z,4.53
2022-10-23T21:04:27.459Z,2.33
2022-10-23T21:07:09.343Z,5.70
2022-10-23T21:09:38.320Z,5.13
2022-10-23T21:14:50.928Z,4.05
2022-10-23T21:17:18.139Z,7.85
2022-10-23T21:19:45.209Z,6.63
2022-10-23T21:22:11.830Z,9.52
2022-10-23T21:24:40.037Z,3.88
2022-10-23T21:27:09.485Z,7.43
2022-10-23T21:29:36.127Z,8.10
2022-10-23T21:32:03.087Z,6.40
2022-10-23T21:34:31.302Z,6.38
2022-10-23T21:37:16.819Z,4.43
2022-10-23T21:39:46.040Z,3.92
2022-10-23T21:42:13.559Z,6.47
2022-10-23T21:44:40.281Z,12.57
2022-10-23T21:47:07.126Z,5.80
2022-10-23T21:49:36.475Z,5.03
2022-10-23T21:52:04.300Z,9.43
2022-10-23T21:54:32.197Z,8.25
2022-10-23T21:56:58.918Z,5.30
2022-10-23T21:59:29.981Z,6.03
2022-10-23T22:01:58.546Z,6.63
2022-10-23T22:04:25.362Z,5.50
2022-10-23T22:06:53.726Z,9.00
2022-10-23T22:09:21.843Z,5.72
2022-10-23T22:11:50.185Z,9.48
2022-10-23T22:14:19.576Z,7.30
2022-10-23T22:16:47.970Z,3.97
2022-10-23T22:19:16.831Z,12.70
2022-10-23T22:21:46.174Z,6.07
2022-10-23T22:24:13.834Z,5.03
2022-10-23T22:26:44.805Z,8.90
2022-10-23T22:29:13.973Z,6.78
2022-10-23T22:31:44.226Z,15.40
2022-10-23T22:34:27.019Z,9.55
2022-10-23T22:37:04.854Z,8.25
2022-10-23T22:39:31.458Z,4.35
2022-10-23T22:41:58.295Z,4.55
2022-10-23T22:44:24.990Z,5.40
2022-10-23T22:46:51.662Z,11.52
2022-10-23T22:49:18.322Z,10.90
2022-10-23T22:51:44.969Z,12.70
2022-10-23T22:54:12.056Z,8.15
2022-10-23T22:56:38.805Z,11.68
2022-10-23T22:59:06.122Z,9.40
2022-10-23T23:01:35.996Z,10.45
2022-10-23T23:04:13.920Z,10.18
2022-10-23T23:06:52.063Z,8.90
2022-10-23T23:09:18.891Z,10.70
2022-10-23T23:11:51.751Z,11.02
2022-10-23T23:14:23.249Z,8.05
2022-10-23T23:16:51.667Z,6.88
2022-10-23T23:19:18.351Z,9.02
2022-10-23T23:21:45.026Z,11.02
2022-10-23T23:24:11.942Z,9.13
2022-10-23T23:26:38.824Z,8.77
2022-10-23T23:29:05.452Z,6.43
2022-10-23T23:31:32.182Z,8.48
2022-10-23T23:33:58.860Z,8.30
2022-10-23T23:36:27.012Z,6.68
2022-10-23T23:38:55.270Z,12.32
2022-10-23T23:41:22.848Z,8.27
2022-10-23T23:43:49.637Z,5.60
2022-10-23T23:46:16.989Z,10.35
2022-10-23T23:48:47.809Z,7.75
2022-10-23T23:51:16.148Z,11.65
2022-10-23T23:53:42.989Z,8.32
2022-10-23T23:56:09.861Z,16.42
2022-10-23T23:58:36.706Z,9.25
